Time;durP1;ratioP1;P1;durP2;ratioP2;P2;SDS_P1;SDS_P2;PMS_P1;PMS_P2;Temp;Humidity;BMP_temperature;BMP_pressure;BME280_temperature;BME280_humidity;BME280_pressure;Samples;Min_cycle;Max_cycle;Signal;HPM_P1;HPM_P2
2023/01/28 07:01:48;;;;;;;11.70;10.50;;;;;;;-145.79;58.64;80133.75;5292096;27;20438;-72
2023/01/28 07:04:19;;;;;;;15.93;10.90;;;;;;;-145.79;58.33;80129.50;5280559;28;20029;-72
2023/01/28 07:06:51;;;;;;;10.82;9.73;;;;;;;-145.79;58.29;80140.09;5280000;28;20025;-73
2023/01/28 07:09:22;;;;;;;11.32;10.13;;;;;;;-145.79;58.61;80133.75;5279247;28;20063;-73
2023/01/28 07:11:54;;;;;;;12.13;9.90;;;;;;;-145.79;58.04;80125.25;5280080;28;20039;-73
2023/01/28 07:14:25;;;;;;;9.85;8.60;;;;;;;-145.79;57.80;80140.09;5288176;28;20098;-72
2023/01/28 07:16:59;;;;;;;12.07;9.90;;;;;;;-145.79;58.13;80131.63;5300448;28;20028;-72
2023/01/28 07:19:30;;;;;;;12.18;9.65;;;;;;;-145.79;57.50;80118.91;5301174;28;20098;-72
2023/01/28 07:22:02;;;;;;;12.00;10.35;;;;;;;-145.79;57.06;80116.78;5300116;28;20020;-72
2023/01/28 07:24:34;;;;;;;12.43;9.93;;;;;;;-145.79;57.77;80118.91;5301008;28;20107;-72
2023/01/28 07:27:05;;;;;;;14.10;10.57;;;;;;;-145.79;57.63;80129.50;5301069;28;20462;-72
2023/01/28 07:29:36;;;;;;;11.85;10.13;;;;;;;-145.79;58.10;80131.63;5300230;28;20051;-72
2023/01/28 07:32:08;;;;;;;20.65;10.45;;;;;;;-145.79;57.59;80133.75;5300425;28;20126;-72
2023/01/28 07:34:41;;;;;;;11.02;9.75;;;;;;;-145.79;57.14;80135.88;5300660;28;20348;-72
2023/01/28 07:37:16;;;;;;;15.82;10.85;;;;;;;-145.79;57.80;80150.72;5299850;28;20093;-71
2023/01/28 07:39:48;;;;;;;14.68;10.98;;;;;;;-145.79;58.40;80133.75;5300780;28;20028;-72
2023/01/28 07:42:19;;;;;;;15.68;10.77;;;;;;;-145.79;59.00;80144.34;5300159;28;20024;-72
2023/01/28 07:44:50;;;;;;;12.90;9.95;;;;;;;-145.79;57.94;80140.09;5299934;28;20020;-71
2023/01/28 07:47:21;;;;;;;14.80;11.02;;;;;;;-145.79;57.80;80137.97;5300682;28;20498;-71
2023/01/28 07:49:53;;;;;;;11.85;10.50;;;;;;;-145.79;57.28;80142.22;5292994;28;20139;-72
2023/01/28 07:52:24;;;;;;;11.63;10.15;;;;;;;-145.79;57.15;80142.22;5279119;28;20052;-72
2023/01/28 07:54:55;;;;;;;14.25;10.82;;;;;;;-145.79;56.99;80161.31;5279747;28;20047;-72
2023/01/28 07:57:29;;;;;;;12.23;10.13;;;;;;;-145.79;57.12;80150.72;5278369;28;20040;-72
2023/01/28 08:00:10;;;;;;;11.30;9.95;;;;;;;-145.79;57.25;80148.59;5285100;28;20075;-72
2023/01/28 08:02:43;;;;;;;11.93;9.85;;;;;;;-145.79;56.08;80169.81;5307116;28;20059;-72
2023/01/28 08:05:19;;;;;;;9.98;8.98;;;;;;;-145.79;56.62;80159.19;5320039;28;20063;-72
2023/01/28 08:07:52;;;;;;;11.85;9.98;;;;;;;-145.79;56.64;80167.69;5321097;28;20069;-72
2023/01/28 08:10:23;;;;;;;12.68;10.85;;;;;;;-145.79;57.46;80180.41;5321015;28;20024;-73
2023/01/28 08:12:59;;;;;;;13.63;10.00;;;;;;;-145.79;57.92;80142.22;5307589;28;20160;-78
2023/01/28 08:15:31;;;;;;;11.10;9.75;;;;;;;-145.79;57.80;80125.25;5306488;28;20065;-70
2023/01/28 08:18:06;;;;;;;13.52;10.77;;;;;;;-145.79;57.37;80129.50;5306235;28;20024;-70
2023/01/28 08:20:37;;;;;;;11.87;10.53;;;;;;;-145.79;57.45;80125.25;5306636;28;20035;-71
2023/01/28 08:23:15;;;;;;;13.85;10.98;;;;;;;-145.79;56.30;80135.88;5304173;28;20293;-71
2023/01/28 08:25:47;;;;;;;15.50;10.23;;;;;;;-145.79;56.17;80142.22;5306281;28;20377;-73
2023/01/28 08:28:20;;;;;;;17.17;12.20;;;;;;;-145.79;56.95;80148.59;5306722;28;20162;-73
2023/01/28 08:30:51;;;;;;;21.08;17.77;;;;;;;-145.79;56.32;80137.97;5306810;28;20028;-70
2023/01/28 08:33:23;;;;;;;13.48;11.13;;;;;;;-145.79;55.89;80131.63;5305553;28;20378;-71
2023/01/28 08:35:55;;;;;;;13.02;10.30;;;;;;;-145.79;55.75;80140.09;5306728;28;20021;-70
2023/01/28 08:38:27;;;;;;;15.32;10.68;;;;;;;-145.79;55.54;80129.50;5306539;28;20028;-71
2023/01/28 08:40:58;;;;;;;13.10;11.25;;;;;;;-145.79;55.27;80146.47;5289847;28;20029;-71
2023/01/28 08:43:30;;;;;;;13.40;9.95;;;;;;;-145.79;55.61;80146.47;5285064;28;20029;-71
2023/01/28 08:46:04;;;;;;;11.48;9.70;;;;;;;-145.79;56.16;80140.09;5284509;28;20048;-71
2023/01/28 08:48:37;;;;;;;11.65;9.88;;;;;;;-145.79;55.87;80140.09;5285169;28;20494;-70
2023/01/28 08:51:08;;;;;;;11.00;9.80;;;;;;;-145.79;55.42;80159.19;5268045;28;20086;-71
2023/01/28 08:53:42;;;;;;;12.25;10.70;;;;;;;-145.79;55.91;80142.22;5300296;28;20020;-70
2023/01/28 08:56:17;;;;;;;16.08;10.57;;;;;;;-145.79;55.86;80129.50;5291904;28;20016;-70
2023/01/28 08:58:48;;;;;;;12.30;10.55;;;;;;;-145.79;56.02;80140.09;5305934;28;20416;-70
2023/01/28 09:01:22;;;;;;;11.25;9.18;;;;;;;-145.79;56.23;80129.50;5305243;28;20082;-69
2023/01/28 09:03:55;;;;;;;11.65;9.88;;;;;;;-145.79;56.06;80137.97;5305838;28;20046;-71
2023/01/28 09:06:27;;;;;;;13.90;11.07;;;;;;;-145.79;55.99;80142.22;5305613;28;20047;-71
2023/01/28 09:08:59;;;;;;;12.32;11.02;;;;;;;-145.79;55.53;80142.22;5305009;28;20020;-72
2023/01/28 09:11:30;;;;;;;14.82;10.52;;;;;;;-145.79;55.93;80144.34;5305834;28;20055;-72
2023/01/28 09:14:02;;;;;;;51.45;33.15;;;;;;;-145.79;56.43;80135.88;5305328;28;20051;-71
2023/01/28 09:16:33;;;;;;;13.27;11.18;;;;;;;-145.79;56.10;80137.97;5305389;28;20237;-73
2023/01/28 09:19:04;;;;;;;14.75;11.27;;;;;;;-145.79;55.99;80125.25;5305109;28;20028;-72
2023/01/28 09:21:38;;;;;;;24.45;19.73;;;;;;;-145.79;55.85;80133.75;5304593;28;20443;-71
2023/01/28 09:24:11;;;;;;;14.80;10.85;;;;;;;-145.79;57.96;80135.88;5304036;28;20035;-71
2023/01/28 09:26:43;;;;;;;14.77;11.15;;;;;;;-145.79;56.09;80152.84;5304272;28;20494;-72
2023/01/28 09:29:14;;;;;;;12.68;10.45;;;;;;;-145.79;55.69;80163.44;5303421;28;20099;-70
2023/01/28 09:31:46;;;;;;;14.23;12.40;;;;;;;-145.79;55.88;80152.84;5304315;28;20126;-70
2023/01/28 09:34:17;;;;;;;14.27;11.68;;;;;;;-145.79;56.18;80176.16;5304942;28;20020;-70
2023/01/28 09:36:48;;;;;;;16.27;12.60;;;;;;;-145.79;56.46;80167.69;5298501;28;20052;-71
2023/01/28 09:39:20;;;;;;;11.85;10.63;;;;;;;-145.79;56.18;80163.44;5283775;28;20027;-70
2023/01/28 09:42:01;;;;;;;14.95;10.63;;;;;;;-145.79;57.99;80140.09;5283896;28;20020;-72
2023/01/28 09:45:00;;;;;;;11.50;10.25;;;;;;;-145.79;56.72;80129.50;5283290;28;20437;-73
2023/01/28 09:47:38;;;;;;;14.65;11.40;;;;;;;-145.79;56.32;80150.72;5292431;28;20028;-74
2023/01/28 09:50:38;;;;;;;17.08;12.15;;;;;;;-145.79;57.00;80137.97;5304018;28;20081;-73
2023/01/28 09:53:18;;;;;;;14.32;11.20;;;;;;;-145.79;56.57;80137.97;5302258;28;20060;-73
2023/01/28 09:56:06;;;;;;;11.70;10.32;;;;;;;-145.79;56.00;80150.72;5303998;28;20386;-73
2023/01/28 09:58:37;;;;;;;13.98;11.23;;;;;;;-145.79;55.90;80161.31;5303392;28;20024;-72
2023/01/28 10:01:27;;;;;;;14.35;10.98;;;;;;;-145.79;56.10;80159.19;5298966;28;20071;-73
2023/01/28 10:04:49;;;;;;;14.85;12.05;;;;;;;-145.79;56.19;80157.06;5286972;28;20370;-73
2023/01/28 10:07:53;;;;;;;16.55;10.90;;;;;;;-145.79;56.40;80165.56;5238805;28;20036;-71
2023/01/28 10:10:32;;;;;;;15.88;11.48;;;;;;;-145.79;55.72;80165.56;5274215;28;20494;-71
2023/01/28 10:13:38;;;;;;;23.48;18.88;;;;;;;-145.79;55.79;80163.44;5287345;28;20019;-71
2023/01/28 10:16:42;;;;;;;12.57;10.85;;;;;;;-145.79;56.16;80163.44;5304113;28;20024;-72
2023/01/28 10:19:31;;;;;;;12.07;10.90;;;;;;;-145.79;55.72;80184.66;5303008;28;20036;-72
2023/01/28 10:22:08;;;;;;;11.40;10.27;;;;;;;-145.79;55.85;80195.25;5304021;28;20044;-72
2023/01/28 10:24:53;;;;;;;13.40;10.63;;;;;;;-145.79;56.40;80201.63;5303617;28;20130;-73
2023/01/28 10:27:29;;;;;;;11.95;10.30;;;;;;;-145.79;55.84;80214.34;5287125;28;20040;-71
2023/01/28 10:30:21;;;;;;;11.80;10.27;;;;;;;-145.79;55.86;80201.63;5283000;28;20025;-73
2023/01/28 10:33:16;;;;;;;13.95;10.20;;;;;;;-145.79;56.39;80205.84;5282482;28;20028;-72
2023/01/28 10:36:10;;;;;;;15.40;10.57;;;;;;;-145.79;56.26;80197.38;5282983;28;20395;-72
2023/01/28 10:38:44;;;;;;;11.90;10.07;;;;;;;-145.79;55.51;80195.25;5291261;28;20039;-72
2023/01/28 10:41:20;;;;;;;13.10;10.63;;;;;;;-145.79;55.56;80199.50;5305032;28;20044;-71
2023/01/28 10:43:51;;;;;;;11.48;10.30;;;;;;;-145.79;55.39;80197.38;5304271;28;20359;-70
2023/01/28 10:46:28;;;;;;;10.20;9.05;;;;;;;-145.79;55.53;80186.78;5303394;28;20077;-72
2023/01/28 10:49:12;;;;;;;11.07;9.85;;;;;;;-145.79;55.58;80193.13;5303454;28;20031;-71
2023/01/28 10:51:43;;;;;;;11.20;9.40;;;;;;;-145.79;55.40;80193.13;5303155;28;20122;-71
2023/01/28 10:54:23;;;;;;;10.93;9.82;;;;;;;-145.79;55.75;80193.13;5301875;28;20107;-72
2023/01/28 10:56:59;;;;;;;11.57;9.52;;;;;;;-145.79;55.55;80199.50;5303276;28;20058;-73
2023/01/28 10:59:41;;;;;;;16.23;14.38;;;;;;;-145.79;56.05;80178.28;5303386;28;20107;-71
2023/01/28 11:02:23;;;;;;;21.38;13.65;;;;;;;-145.79;55.73;80171.91;5300948;28;20024;-72
2023/01/28 11:05:17;;;;;;;11.48;9.50;;;;;;;-145.79;56.45;80176.16;5303161;28;20068;-71
2023/01/28 11:07:49;;;;;;;10.82;9.57;;;;;;;-145.79;56.16;80188.88;5302715;28;20034;-71
2023/01/28 11:10:27;;;;;;;10.95;9.18;;;;;;;-145.79;56.36;80186.78;5303299;28;20449;-70
2023/01/28 11:13:03;;;;;;;14.77;9.80;;;;;;;-145.79;56.43;80184.66;5293426;28;20382;-71
2023/01/28 11:15:34;;;;;;;;;;;;;;;-145.79;56.35;80154.94;5295111;28;20035;-71
2023/01/28 11:18:25;;;;;;;12.95;10.50;;;;;;;-145.79;56.40;80180.41;5313683;28;19908;-71
2023/01/28 11:21:00;;;;;;;10.77;9.63;;;;;;;-145.79;56.65;80184.66;5281532;28;20037;-70
2023/01/28 11:23:37;;;;;;;10.90;9.43;;;;;;;-145.79;56.43;80171.91;5282225;28;20036;-72
2023/01/28 11:26:18;;;;;;;11.70;9.80;;;;;;;-145.79;56.61;80186.78;5282446;28;20020;-72
2023/01/28 11:28:51;;;;;;;10.98;9.77;;;;;;;-145.79;56.63;80184.66;5287263;28;20016;-72
2023/01/28 11:31:23;;;;;;;12.80;10.38;;;;;;;-145.79;57.31;80167.69;5302250;28;20501;-73
2023/01/28 11:33:58;;;;;;;14.63;10.73;;;;;;;-145.79;57.03;80159.19;5293996;28;20032;-72
2023/01/28 11:36:35;;;;;;;13.18;11.50;;;;;;;-145.79;57.17;80137.97;5291686;28;20102;-72
2023/01/28 11:39:21;;;;;;;13.90;11.05;;;;;;;-145.79;57.58;80137.97;5293510;28;20028;-72
2023/01/28 11:41:53;;;;;;;11.18;9.57;;;;;;;-145.79;56.02;80144.34;5284299;28;20140;-73
2023/01/28 11:44:26;;;;;;;12.70;9.23;;;;;;;-145.79;56.24;80142.22;5285713;28;20112;-72
2023/01/28 11:47:12;;;;;;;12.55;10.13;;;;;;;-145.79;56.35;80133.75;5294592;28;20016;-72
2023/01/28 11:49:55;;;;;;;13.05;9.85;;;;;;;-145.79;56.02;80133.75;5304597;28;20035;-70
2023/01/28 11:52:57;;;;;;;10.65;9.52;;;;;;;-145.79;56.02;80101.94;5298776;28;20119;-72
2023/01/28 11:55:47;;;;;;;14.05;10.07;;;;;;;-145.79;56.50;80101.94;5300154;28;20024;-72
2023/01/28 11:58:36;;;;;;;12.95;10.63;;;;;;;-145.79;56.04;80097.69;5298096;28;20111;-72
2023/01/28 12:01:35;;;;;;;12.77;9.77;;;;;;;-145.79;56.97;80074.34;5303883;28;20044;-73
2023/01/28 12:04:32;;;;;;;16.48;10.70;;;;;;;-145.79;56.83;80051.03;5297467;28;20032;-74
2023/01/28 12:07:21;;;;;;;12.00;10.55;;;;;;;-145.79;56.68;80034.06;5294469;28;20059;-72
2023/01/28 12:10:01;;;;;;;18.25;15.68;;;;;;;-145.79;56.48;80017.09;5301991;28;20047;-73
2023/01/28 12:12:54;;;;;;;19.52;15.68;;;;;;;-145.79;56.22;79991.63;5303766;28;20339;-74
2023/01/28 12:16:03;;;;;;;14.30;10.52;;;;;;;-145.79;56.38;79985.28;5297298;28;20028;-74
2023/01/28 12:18:45;;;;;;;11.85;9.80;;;;;;;-145.79;54.92;79976.78;5315814;28;20440;-73
2023/01/28 12:21:40;;;;;;;17.45;15.27;;;;;;;-145.79;54.91;79976.78;5306743;28;20382;-74
2023/01/28 12:24:27;;;;;;;11.93;9.90;;;;;;;-145.79;55.03;79970.41;5305323;28;20027;-73
2023/01/28 12:27:07;;;;;;;14.82;11.70;;;;;;;-145.79;54.62;79966.19;5305631;28;20028;-72
2023/01/28 12:30:07;;;;;;;43.92;31.90;;;;;;;-145.79;54.46;79966.19;5305991;28;20028;-72
2023/01/28 12:32:47;;;;;;;12.68;10.57;;;;;;;-145.79;54.14;79974.66;5305354;28;20059;-73
2023/01/28 12:35:31;;;;;;;14.93;11.10;;;;;;;-145.79;54.46;79972.53;5306008;28;20496;-73
2023/01/28 12:38:13;;;;;;;13.50;10.10;;;;;;;-145.79;54.26;79966.19;5304897;28;20051;-71
2023/01/28 12:41:06;;;;;;;13.65;9.93;;;;;;;-145.79;55.14;79968.31;5304862;28;20111;-68
2023/01/28 12:43:56;;;;;;;14.25;9.60;;;;;;;-145.79;57.83;79923.75;5286872;28;20054;-72
2023/01/28 12:46:41;;;;;;;15.52;10.90;;;;;;;-145.79;61.55;79891.94;5286744;28;20036;-72
2023/01/28 12:49:28;;;;;;;12.25;10.07;;;;;;;-145.79;59.92;79898.31;5306081;28;20032;-71
2023/01/28 12:52:08;;;;;;;13.63;10.68;;;;;;;-145.79;59.46;79904.66;5287909;28;20085;-73
2023/01/28 12:54:43;;;;;;;12.77;9.60;;;;;;;-145.79;59.44;79919.53;5305340;28;20032;-72
2023/01/28 12:57:27;;;;;;;21.45;17.23;;;;;;;-145.79;58.89;79904.66;5304455;28;20376;-71
2023/01/28 13:00:24;;;;;;;26.25;18.13;;;;;;;-145.79;60.07;79906.78;5292416;28;20044;-72
2023/01/28 13:03:20;;;;;;;12.23;10.93;;;;;;;-145.79;57.60;79913.16;5293317;28;20063;-71
2023/01/28 13:05:57;;;;;;;14.30;11.20;;;;;;;-145.79;54.90;79917.41;5293991;28;20051;-71
2023/01/28 13:08:29;;;;;;;13.55;10.20;;;;;;;-145.79;58.37;79826.19;5292527;28;20024;-72
2023/01/28 13:11:03;;;;;;;16.25;10.25;;;;;;;-145.79;54.29;79864.38;5293230;28;20028;-69
2023/01/28 13:13:37;;;;;;;12.63;9.93;;;;;;;-145.79;53.77;79843.16;5294217;28;20395;-70
2023/01/28 13:16:10;;;;;;;15.00;11.00;;;;;;;-145.79;55.17;79834.69;5272965;28;20043;-68
2023/01/28 13:18:44;;;;;;;15.32;11.32;;;;;;;-145.79;56.10;79815.59;5293190;28;20059;-69
2023/01/28 13:21:25;;;;;;;11.82;9.95;;;;;;;-145.79;54.88;79815.59;5292185;28;20036;-69
2023/01/28 13:24:17;;;;;;;10.20;8.60;;;;;;;-145.79;55.72;79798.63;5292292;28;20037;-69
2023/01/28 13:26:52;;;;;;;11.98;9.55;;;;;;;-145.79;52.79;79862.25;5293415;28;20155;-69
2023/01/28 13:29:23;;;;;;;15.13;11.60;;;;;;;-145.79;54.98;79821.94;5292443;28;20032;-69
2023/01/28 13:31:57;;;;;;;13.85;11.52;;;;;;;-145.79;55.83;79815.59;5292429;28;20081;-69
2023/01/28 13:34:39;;;;;;;13.37;11.03;;;;;;;-145.79;54.31;79843.16;5289805;28;20025;-72
2023/01/28 13:37:36;;;;;;;10.23;8.18;;;;;;;-145.79;56.66;79815.59;5283807;28;20422;-71
2023/01/28 13:40:22;;;;;;;9.85;8.43;;;;;;;-145.79;54.57;79821.94;5290700;28;20375;-71
2023/01/28 13:43:03;;;;;;;17.75;7.60;;;;;;;-145.79;52.88;79870.72;5292799;28;20089;-72
2023/01/28 13:45:35;;;;;;;9.65;8.13;;;;;;;-145.79;52.26;79858.00;5291563;28;20475;-73
2023/01/28 13:48:28;;;;;;;12.25;8.65;;;;;;;-145.79;53.36;79832.56;5293568;28;20090;-73
2023/01/28 13:51:02;;;;;;;7.95;7.07;;;;;;;-145.79;51.97;79838.91;5292991;28;20038;-72
2023/01/28 13:53:55;;;;;;;12.00;7.80;;;;;;;-145.79;53.08;79805.00;5294337;28;20021;-73
2023/01/28 13:56:54;;;;;;;8.23;7.18;;;;;;;-145.79;51.48;79815.59;5295292;28;20031;-75
2023/01/28 13:59:56;;;;;;;8.30;7.38;;;;;;;-145.79;52.12;79794.38;5283704;28;20085;-74
2023/01/28 14:02:38;;;;;;;8.50;7.43;;;;;;;-145.79;53.31;79785.91;5292783;28;20028;-73
2023/01/28 14:05:39;;;;;;;15.25;11.05;;;;;;;-145.79;51.84;79771.06;5290983;28;20487;-73
2023/01/28 14:08:29;;;;;;;14.00;7.82;;;;;;;-145.79;52.12;79796.50;5289448;28;20043;-74
2023/01/28 14:11:17;;;;;;;9.32;7.50;;;;;;;-145.79;51.58;79798.63;5289963;28;20039;-73
2023/01/28 14:14:10;;;;;;;8.18;7.38;;;;;;;-145.79;51.63;79779.53;5294040;28;20028;-73
2023/01/28 14:16:51;;;;;;;8.50;6.68;;;;;;;-145.79;52.35;79747.72;5291697;28;20031;-72
2023/01/28 14:19:28;;;;;;;14.68;11.13;;;;;;;-145.79;50.72;79756.22;5293241;28;20032;-73
2023/01/28 14:22:09;;;;;;;9.00;6.90;;;;;;;-145.79;51.28;79732.88;5292110;28;20016;-74
2023/01/28 14:24:40;;;;;;;8.38;6.97;;;;;;;-145.79;50.77;79737.13;5291686;28;20501;-74
2023/01/28 14:27:26;;;;;;;10.25;8.32;;;;;;;-145.79;51.01;79709.53;5291877;28;20020;-74
2023/01/28 14:29:58;;;;;;;7.60;6.38;;;;;;;-145.79;52.15;79703.19;5293325;28;20093;-72
2023/01/28 14:32:32;;;;;;;8.27;7.30;;;;;;;-145.79;49.57;79741.38;5292505;28;20016;-73
2023/01/28 14:35:08;;;;;;;10.57;7.70;;;;;;;-145.79;49.29;79760.44;5293134;28;20352;-71
2023/01/28 14:37:40;;;;;;;11.32;8.13;;;;;;;-145.79;49.92;79777.41;5292621;28;20360;-72
2023/01/28 14:40:14;;;;;;;13.88;9.60;;;;;;;-145.79;49.85;79805.00;5293210;28;20032;-73
2023/01/28 14:42:53;;;;;;;8.18;7.32;;;;;;;-145.79;50.23;79800.75;5292217;28;20032;-74
2023/01/28 14:45:49;;;;;;;10.23;7.90;;;;;;;-145.79;52.08;79768.94;5285431;28;20032;-71
2023/01/28 14:48:28;;;;;;;8.80;7.53;;;;;;;-145.79;53.66;79781.66;5291455;28;20035;-72
2023/01/28 14:51:14;;;;;;;10.38;7.28;;;;;;;-145.79;51.90;79796.50;5289947;28;20489;-71
2023/01/28 14:54:15;;;;;;;11.52;8.40;;;;;;;-145.79;51.89;79834.69;5291404;28;20057;-73
2023/01/28 14:57:04;;;;;;;8.30;6.88;;;;;;;-145.79;53.67;79777.41;5292640;28;20506;-70
2023/01/28 14:59:44;;;;;;;20.27;14.35;;;;;;;-145.79;53.82;79788.03;5286541;28;20081;-70
2023/01/28 15:02:21;;;;;;;8.45;7.05;;;;;;;-145.79;52.75;79781.66;5290769;28;20028;-71
2023/01/28 15:04:53;;;;;;;7.90;7.10;;;;;;;-145.79;52.70;79794.38;5290689;28;20507;-71
2023/01/28 15:07:26;;;;;;;12.27;7.88;;;;;;;-145.79;53.68;79775.28;5289299;28;20021;-73
2023/01/28 15:10:00;;;;;;;10.35;8.10;;;;;;;-145.79;51.60;79807.09;5289879;28;20055;-73
2023/01/28 15:12:34;;;;;;;7.60;6.47;;;;;;;-145.79;51.22;79845.28;5290094;28;20138;-70
2023/01/28 15:15:16;;;;;;;12.68;8.45;;;;;;;-145.79;54.61;79794.38;5295530;28;20043;-71
2023/01/28 15:17:48;;;;;;;10.05;8.90;;;;;;;-145.79;51.99;79853.78;5280175;28;20033;-69
2023/01/28 15:20:23;;;;;;;11.32;7.82;;;;;;;-145.79;52.13;79870.72;5289046;28;20038;-71
2023/01/28 15:22:55;;;;;;;8.90;6.93;;;;;;;-145.79;54.89;79796.50;5301569;28;20042;-69
2023/01/28 15:25:28;;;;;;;11.38;8.13;;;;;;;-145.79;51.69;79887.69;5289956;28;20021;-73
2023/01/28 15:28:00;;;;;;;12.35;6.72;;;;;;;-145.79;52.60;79858.00;5293900;28;20095;-72
2023/01/28 15:30:32;;;;;;;15.77;10.45;;;;;;;-145.79;51.92;79877.09;5306669;28;20100;-72
2023/01/28 15:33:11;;;;;;;17.88;14.02;;;;;;;-145.79;52.06;79898.31;5295148;28;20030;-71
2023/01/28 15:35:51;;;;;;;11.48;7.88;;;;;;;-145.79;53.25;79862.25;5296452;28;20437;-72
2023/01/28 15:38:25;;;;;;;9.40;7.93;;;;;;;-145.79;51.87;79887.69;5293175;28;20048;-72
2023/01/28 15:41:01;;;;;;;12.95;8.43;;;;;;;-145.79;52.25;79904.66;5293861;28;20029;-73
2023/01/28 15:43:37;;;;;;;16.30;11.32;;;;;;;-145.79;51.88;79908.91;5295225;28;20035;-74
2023/01/28 15:46:11;;;;;;;11.57;8.00;;;;;;;-145.79;52.22;79947.09;5295699;28;20385;-74
2023/01/28 15:48:54;;;;;;;14.27;8.50;;;;;;;-145.79;53.94;79904.66;5291658;28;20025;-69
2023/01/28 15:51:32;;;;;;;12.73;7.90;;;;;;;-145.79;52.89;79917.41;5294978;28;20441;-70
2023/01/28 15:54:09;;;;;;;11.35;8.07;;;;;;;-145.79;52.59;79930.13;5291151;28;20039;-68
2023/01/28 15:56:44;;;;;;;10.38;7.50;;;;;;;-145.79;52.53;79968.31;5291521;28;20433;-69
2023/01/28 15:59:26;;;;;;;9.50;8.20;;;;;;;-145.79;53.22;79991.63;5291323;28;20017;-69
2023/01/28 16:02:18;;;;;;;13.15;8.63;;;;;;;-145.79;53.64;79989.50;5293737;28;20036;-68
2023/01/28 16:05:03;;;;;;;12.23;7.40;;;;;;;-145.79;54.09;80012.84;5292852;28;20024;-70
2023/01/28 16:07:43;;;;;;;11.02;8.60;;;;;;;-145.79;54.28;80044.66;5292832;28;20039;-70
2023/01/28 16:10:27;;;;;;;10.60;7.95;;;;;;;-145.79;54.15;80051.03;5290116;28;20029;-70
2023/01/28 16:13:05;;;;;;;10.10;8.27;;;;;;;-145.79;54.32;80046.78;5296700;28;20383;-68
2023/01/28 16:15:38;;;;;;;13.13;8.35;;;;;;;-145.79;54.08;80046.78;5293947;28;20021;-68
2023/01/28 16:18:38;;;;;;;11.70;8.13;;;;;;;-145.79;54.84;80053.16;5296071;28;20044;-67
2023/01/28 16:21:18;;;;;;;12.63;9.18;;;;;;;-145.79;54.19;80048.91;5292106;28;20204;-68
2023/01/28 16:23:51;;;;;;;11.77;10.18;;;;;;;-145.79;54.44;80051.03;5293516;28;20024;-68
2023/01/28 16:26:28;;;;;;;15.02;11.65;;;;;;;-145.79;55.14;80044.66;5294384;28;20120;-67
2023/01/28 16:29:12;;;;;;;10.55;9.55;;;;;;;-145.79;54.71;80040.41;5295423;28;20357;-67
2023/01/28 16:31:43;;;;;;;14.82;10.02;;;;;;;-145.79;54.55;80019.19;5304645;28;20074;-68
